To NAV CANADA Home Page Login to a new session Search on AWWS site Feedback and Comments Disclaimer Vers la page française équivalente Tips FAQ What's new on the site To the Forecasts and Observations / NOTAM section To "File a Flight Plan" website Publications and other links Update of the User's profile FIC Telephone Numbers My Weather Data Folder Route Weather Data Regional Weather Data Local Weather Data To the Forecasts and Observations / NOTAM section
Request Generated 10/18/2017 at 03:53:47 UTC . Weather information available at that time is displayed.

METAR/TAF

EDMONTON INTL/AB    

METAR CYEG 180300Z 30032G42KT 15SM FEW030 BKN140 BKN200 05/M02 A2950
RMK SC1AC4CS2 SLP010=
METAR CYEG 180200Z 30029G40KT 15SM FEW035 BKN140 05/M01 A2946 RMK
SC2AC5 PRESRR SLP995=
SPECI CYEG 180129Z 30025G40KT 15SM FEW030 BKN130 05/00 A2942 WS RWY30
RMK SC2AC5 PRESRR SLP984 DENSITY ALT 2400FT=
METAR CYEG 180100Z 29028G41KT 15SM FEW032 BKN120 06/01 A2937 RMK
SC2AC5 PRESRR SLP965 DENSITY ALT 2600FT=

TAF CYEG 180238Z 1803/1824 30025G40KT P6SM FEW030 BKN140
FM180600 28015G35KT P6SM FEW040
BECMG 1810/1812 26010KT
FM181800 20010KT P6SM SCT240
FM182200 16012G22KT P6SM SCT100 BKN220
RMK NXT FCST BY 180600Z=
Your time UTC time
Weather data provided by Environment Canada and NAV CANADA